sensor_id;sensor_type;location;lat;lon;timestamp;P1;durP1;ratioP1;P2;durP2;ratioP2
11927;SDS011;6023;47.070;15.126;2023-06-26T00:01:12;10.07;;;9.07;;
11927;SDS011;6023;47.070;15.126;2023-06-26T00:03:41;9.67;;;8.73;;
11927;SDS011;6023;47.070;15.126;2023-06-26T00:06:09;9.70;;;8.77;;
11927;SDS011;6023;47.070;15.126;2023-06-26T00:08:39;10.07;;;9.00;;
11927;SDS011;6023;47.070;15.126;2023-06-26T00:11:08;9.63;;;8.63;;
11927;SDS011;6023;47.070;15.126;2023-06-26T00:13:36;8.80;;;7.83;;
11927;SDS011;6023;47.070;15.126;2023-06-26T00:16:05;9.40;;;8.50;;
11927;SDS011;6023;47.070;15.126;2023-06-26T00:18:34;9.63;;;8.73;;
11927;SDS011;6023;47.070;15.126;2023-06-26T00:21:02;10.17;;;8.60;;
11927;SDS011;6023;47.070;15.126;2023-06-26T00:23:31;9.40;;;8.40;;
11927;SDS011;6023;47.070;15.126;2023-06-26T00:26:07;11.53;;;9.13;;
11927;SDS011;6023;47.070;15.126;2023-06-26T00:28:37;10.87;;;8.67;;
11927;SDS011;6023;47.070;15.126;2023-06-26T00:31:05;9.60;;;8.70;;
11927;SDS011;6023;47.070;15.126;2023-06-26T00:33:34;9.33;;;8.17;;
11927;SDS011;6023;47.070;15.126;2023-06-26T00:36:03;10.13;;;8.57;;
11927;SDS011;6023;47.070;15.126;2023-06-26T00:38:32;10.13;;;9.13;;
11927;SDS011;6023;47.070;15.126;2023-06-26T00:41:00;10.43;;;9.33;;
11927;SDS011;6023;47.070;15.126;2023-06-26T00:43:30;13.07;;;9.57;;
11927;SDS011;6023;47.070;15.126;2023-06-26T00:45:59;10.60;;;9.50;;
11927;SDS011;6023;47.070;15.126;2023-06-26T00:48:27;10.30;;;8.90;;
11927;SDS011;6023;47.070;15.126;2023-06-26T00:50:56;9.43;;;8.53;;
11927;SDS011;6023;47.070;15.126;2023-06-26T00:53:24;9.80;;;8.80;;
11927;SDS011;6023;47.070;15.126;2023-06-26T00:55:53;10.33;;;8.77;;
11927;SDS011;6023;47.070;15.126;2023-06-26T00:58:22;11.03;;;9.33;;
11927;SDS011;6023;47.070;15.126;2023-06-26T01:00:53;11.40;;;8.63;;
11927;SDS011;6023;47.070;15.126;2023-06-26T01:03:23;9.20;;;8.30;;
11927;SDS011;6023;47.070;15.126;2023-06-26T01:05:52;10.00;;;9.00;;
11927;SDS011;6023;47.070;15.126;2023-06-26T01:08:21;10.67;;;9.20;;
11927;SDS011;6023;47.070;15.126;2023-06-26T01:10:50;9.50;;;8.50;;
11927;SDS011;6023;47.070;15.126;2023-06-26T01:13:19;9.27;;;8.33;;
11927;SDS011;6023;47.070;15.126;2023-06-26T01:15:47;9.40;;;8.50;;
11927;SDS011;6023;47.070;15.126;2023-06-26T01:18:18;9.40;;;8.50;;
11927;SDS011;6023;47.070;15.126;2023-06-26T01:20:46;10.30;;;9.33;;
11927;SDS011;6023;47.070;15.126;2023-06-26T01:23:16;9.70;;;8.70;;
11927;SDS011;6023;47.070;15.126;2023-06-26T01:25:56;9.70;;;8.77;;
11927;SDS011;6023;47.070;15.126;2023-06-26T01:28:39;10.77;;;9.43;;
11927;SDS011;6023;47.070;15.126;2023-06-26T01:31:09;9.80;;;8.70;;
11927;SDS011;6023;47.070;15.126;2023-06-26T01:33:38;9.97;;;8.93;;
11927;SDS011;6023;47.070;15.126;2023-06-26T01:36:08;10.27;;;9.27;;
11927;SDS011;6023;47.070;15.126;2023-06-26T01:38:37;9.90;;;8.90;;
11927;SDS011;6023;47.070;15.126;2023-06-26T01:41:05;11.17;;;10.07;;
11927;SDS011;6023;47.070;15.126;2023-06-26T01:43:38;10.20;;;9.20;;
11927;SDS011;6023;47.070;15.126;2023-06-26T01:46:12;9.10;;;8.20;;
11927;SDS011;6023;47.070;15.126;2023-06-26T01:48:45;10.67;;;9.60;;
11927;SDS011;6023;47.070;15.126;2023-06-26T01:51:18;9.90;;;8.87;;
11927;SDS011;6023;47.070;15.126;2023-06-26T01:53:50;10.53;;;9.43;;
11927;SDS011;6023;47.070;15.126;2023-06-26T01:56:21;10.23;;;9.23;;
11927;SDS011;6023;47.070;15.126;2023-06-26T01:58:52;10.50;;;9.50;;
11927;SDS011;6023;47.070;15.126;2023-06-26T02:01:22;10.60;;;9.50;;
11927;SDS011;6023;47.070;15.126;2023-06-26T02:03:51;10.63;;;8.47;;
11927;SDS011;6023;47.070;15.126;2023-06-26T02:06:20;9.53;;;8.63;;
11927;SDS011;6023;47.070;15.126;2023-06-26T02:08:49;9.30;;;8.33;;
11927;SDS011;6023;47.070;15.126;2023-06-26T02:11:17;9.10;;;8.20;;
11927;SDS011;6023;47.070;15.126;2023-06-26T02:13:46;9.63;;;8.70;;
11927;SDS011;6023;47.070;15.126;2023-06-26T02:16:16;9.53;;;8.53;;
11927;SDS011;6023;47.070;15.126;2023-06-26T02:18:44;9.47;;;8.40;;
11927;SDS011;6023;47.070;15.126;2023-06-26T02:21:13;11.30;;;8.60;;
11927;SDS011;6023;47.070;15.126;2023-06-26T02:23:42;12.13;;;9.17;;
11927;SDS011;6023;47.070;15.126;2023-06-26T02:26:10;10.07;;;8.70;;
11927;SDS011;6023;47.070;15.126;2023-06-26T02:28:39;10.93;;;9.40;;
11927;SDS011;6023;47.070;15.126;2023-06-26T02:31:07;9.07;;;8.17;;
11927;SDS011;6023;47.070;15.126;2023-06-26T02:33:37;9.70;;;8.70;;
11927;SDS011;6023;47.070;15.126;2023-06-26T02:36:06;10.03;;;8.87;;
11927;SDS011;6023;47.070;15.126;2023-06-26T02:38:35;9.73;;;8.73;;
11927;SDS011;6023;47.070;15.126;2023-06-26T02:41:03;9.77;;;8.50;;
11927;SDS011;6023;47.070;15.126;2023-06-26T02:43:32;9.30;;;8.40;;
11927;SDS011;6023;47.070;15.126;2023-06-26T02:46:00;9.33;;;8.43;;
11927;SDS011;6023;47.070;15.126;2023-06-26T02:48:29;9.70;;;8.70;;
11927;SDS011;6023;47.070;15.126;2023-06-26T02:50:59;10.70;;;9.40;;
11927;SDS011;6023;47.070;15.126;2023-06-26T02:53:27;9.73;;;8.77;;
11927;SDS011;6023;47.070;15.126;2023-06-26T02:55:56;10.00;;;9.00;;
11927;SDS011;6023;47.070;15.126;2023-06-26T02:58:24;10.07;;;9.00;;
11927;SDS011;6023;47.070;15.126;2023-06-26T03:00:53;10.33;;;9.33;;
11927;SDS011;6023;47.070;15.126;2023-06-26T03:03:23;9.40;;;8.50;;
11927;SDS011;6023;47.070;15.126;2023-06-26T03:05:51;19.33;;;17.33;;
11927;SDS011;6023;47.070;15.126;2023-06-26T03:08:21;20.40;;;18.30;;
11927;SDS011;6023;47.070;15.126;2023-06-26T03:10:50;21.27;;;19.07;;
11927;SDS011;6023;47.070;15.126;2023-06-26T03:13:22;15.03;;;12.73;;
11927;SDS011;6023;47.070;15.126;2023-06-26T03:15:50;10.67;;;9.57;;
11927;SDS011;6023;47.070;15.126;2023-06-26T03:18:19;10.90;;;9.63;;
11927;SDS011;6023;47.070;15.126;2023-06-26T03:20:47;10.50;;;9.50;;
11927;SDS011;6023;47.070;15.126;2023-06-26T03:23:16;13.00;;;9.87;;
11927;SDS011;6023;47.070;15.126;2023-06-26T03:25:46;10.43;;;9.33;;
11927;SDS011;6023;47.070;15.126;2023-06-26T03:28:15;11.00;;;9.90;;
11927;SDS011;6023;47.070;15.126;2023-06-26T03:30:43;10.53;;;9.07;;
11927;SDS011;6023;47.070;15.126;2023-06-26T03:33:12;11.17;;;9.70;;
11927;SDS011;6023;47.070;15.126;2023-06-26T03:35:41;12.07;;;9.57;;
11927;SDS011;6023;47.070;15.126;2023-06-26T03:38:09;12.30;;;9.93;;
11927;SDS011;6023;47.070;15.126;2023-06-26T03:40:38;10.93;;;9.80;;
11927;SDS011;6023;47.070;15.126;2023-06-26T03:43:08;10.57;;;9.47;;
11927;SDS011;6023;47.070;15.126;2023-06-26T03:45:37;11.23;;;8.90;;
11927;SDS011;6023;47.070;15.126;2023-06-26T03:48:06;9.53;;;8.53;;
11927;SDS011;6023;47.070;15.126;2023-06-26T03:50:35;10.03;;;8.90;;
11927;SDS011;6023;47.070;15.126;2023-06-26T03:53:04;10.70;;;9.60;;
11927;SDS011;6023;47.070;15.126;2023-06-26T03:55:33;10.67;;;8.30;;
11927;SDS011;6023;47.070;15.126;2023-06-26T03:58:02;10.27;;;8.63;;
11927;SDS011;6023;47.070;15.126;2023-06-26T04:00:32;13.73;;;9.93;;
11927;SDS011;6023;47.070;15.126;2023-06-26T04:03:01;11.40;;;9.47;;
11927;SDS011;6023;47.070;15.126;2023-06-26T04:05:31;12.40;;;8.90;;
11927;SDS011;6023;47.070;15.126;2023-06-26T04:07:59;10.00;;;9.00;;
11927;SDS011;6023;47.070;15.126;2023-06-26T04:10:28;10.93;;;9.30;;
11927;SDS011;6023;47.070;15.126;2023-06-26T04:12:56;10.63;;;9.53;;
11927;SDS011;6023;47.070;15.126;2023-06-26T04:15:25;11.17;;;9.97;;
11927;SDS011;6023;47.070;15.126;2023-06-26T04:17:55;10.67;;;9.57;;
11927;SDS011;6023;47.070;15.126;2023-06-26T04:20:24;10.67;;;9.57;;
11927;SDS011;6023;47.070;15.126;2023-06-26T04:22:52;10.47;;;9.37;;
11927;SDS011;6023;47.070;15.126;2023-06-26T04:25:21;12.47;;;9.23;;
11927;SDS011;6023;47.070;15.126;2023-06-26T04:27:49;10.73;;;9.63;;
11927;SDS011;6023;47.070;15.126;2023-06-26T04:30:18;10.80;;;9.70;;
11927;SDS011;6023;47.070;15.126;2023-06-26T04:32:46;11.10;;;9.83;;
11927;SDS011;6023;47.070;15.126;2023-06-26T04:35:17;12.60;;;9.60;;
11927;SDS011;6023;47.070;15.126;2023-06-26T04:37:46;11.17;;;9.97;;
11927;SDS011;6023;47.070;15.126;2023-06-26T04:40:15;11.37;;;10.17;;
11927;SDS011;6023;47.070;15.126;2023-06-26T04:42:43;11.13;;;9.70;;
11927;SDS011;6023;47.070;15.126;2023-06-26T04:45:12;10.53;;;9.43;;
11927;SDS011;6023;47.070;15.126;2023-06-26T04:47:40;12.87;;;10.80;;
11927;SDS011;6023;47.070;15.126;2023-06-26T04:50:09;12.63;;;11.33;;
11927;SDS011;6023;47.070;15.126;2023-06-26T04:52:39;15.20;;;13.57;;
11927;SDS011;6023;47.070;15.126;2023-06-26T04:55:08;11.20;;;9.37;;
11927;SDS011;6023;47.070;15.126;2023-06-26T04:57:36;13.07;;;9.93;;
11927;SDS011;6023;47.070;15.126;2023-06-26T05:00:06;11.60;;;9.73;;
11927;SDS011;6023;47.070;15.126;2023-06-26T05:02:37;10.93;;;9.47;;
11927;SDS011;6023;47.070;15.126;2023-06-26T05:05:06;10.07;;;9.07;;
11927;SDS011;6023;47.070;15.126;2023-06-26T05:07:35;11.80;;;9.80;;
11927;SDS011;6023;47.070;15.126;2023-06-26T05:10:05;11.17;;;9.97;;
11927;SDS011;6023;47.070;15.126;2023-06-26T05:12:34;13.10;;;9.10;;
11927;SDS011;6023;47.070;15.126;2023-06-26T05:15:03;11.63;;;9.73;;
11927;SDS011;6023;47.070;15.126;2023-06-26T05:17:32;10.57;;;8.90;;
11927;SDS011;6023;47.070;15.126;2023-06-26T05:20:01;10.73;;;9.63;;
11927;SDS011;6023;47.070;15.126;2023-06-26T05:22:30;10.13;;;9.13;;
11927;SDS011;6023;47.070;15.126;2023-06-26T05:25:00;12.40;;;11.10;;
11927;SDS011;6023;47.070;15.126;2023-06-26T05:27:33;9.37;;;8.47;;
11927;SDS011;6023;47.070;15.126;2023-06-26T05:30:03;11.00;;;9.00;;
11927;SDS011;6023;47.070;15.126;2023-06-26T05:32:33;9.27;;;8.27;;
11927;SDS011;6023;47.070;15.126;2023-06-26T05:35:03;8.70;;;7.60;;
11927;SDS011;6023;47.070;15.126;2023-06-26T05:37:33;11.50;;;9.00;;
11927;SDS011;6023;47.070;15.126;2023-06-26T05:40:02;9.50;;;8.10;;
11927;SDS011;6023;47.070;15.126;2023-06-26T05:42:34;10.65;;;8.32;;
11927;SDS011;6023;47.070;15.126;2023-06-26T05:45:03;9.13;;;8.23;;
11927;SDS011;6023;47.070;15.126;2023-06-26T05:47:32;8.82;;;7.93;;
11927;SDS011;6023;47.070;15.126;2023-06-26T05:50:02;8.88;;;7.97;;
11927;SDS011;6023;47.070;15.126;2023-06-26T05:52:31;9.73;;;8.27;;
11927;SDS011;6023;47.070;15.126;2023-06-26T05:55:00;9.30;;;8.30;;
11927;SDS011;6023;47.070;15.126;2023-06-26T05:57:31;8.70;;;7.80;;
11927;SDS011;6023;47.070;15.126;2023-06-26T06:00:00;9.10;;;8.10;;
11927;SDS011;6023;47.070;15.126;2023-06-26T06:02:32;8.27;;;7.47;;
11927;SDS011;6023;47.070;15.126;2023-06-26T06:05:02;8.73;;;7.53;;
11927;SDS011;6023;47.070;15.126;2023-06-26T06:07:31;9.75;;;7.72;;
11927;SDS011;6023;47.070;15.126;2023-06-26T06:10:00;8.57;;;7.70;;
11927;SDS011;6023;47.070;15.126;2023-06-26T06:12:30;9.40;;;8.45;;
11927;SDS011;6023;47.070;15.126;2023-06-26T06:14:59;8.88;;;7.97;;
11927;SDS011;6023;47.070;15.126;2023-06-26T06:17:28;8.55;;;7.72;;
11927;SDS011;6023;47.070;15.126;2023-06-26T06:19:56;8.82;;;8.00;;
11927;SDS011;6023;47.070;15.126;2023-06-26T06:22:25;9.73;;;7.90;;
11927;SDS011;6023;47.070;15.126;2023-06-26T06:24:53;8.68;;;7.82;;
11927;SDS011;6023;47.070;15.126;2023-06-26T06:27:22;9.45;;;8.38;;
11927;SDS011;6023;47.070;15.126;2023-06-26T06:29:52;8.80;;;8.00;;
11927;SDS011;6023;47.070;15.126;2023-06-26T06:32:20;9.00;;;8.20;;
11927;SDS011;6023;47.070;15.126;2023-06-26T06:34:49;8.57;;;7.88;;
11927;SDS011;6023;47.070;15.126;2023-06-26T06:37:19;8.73;;;7.93;;
11927;SDS011;6023;47.070;15.126;2023-06-26T06:39:47;9.15;;;8.35;;
11927;SDS011;6023;47.070;15.126;2023-06-26T06:42:16;9.75;;;8.80;;
11927;SDS011;6023;47.070;15.126;2023-06-26T06:44:45;11.20;;;10.10;;
11927;SDS011;6023;47.070;15.126;2023-06-26T06:47:15;11.95;;;10.82;;
11927;SDS011;6023;47.070;15.126;2023-06-26T06:49:43;9.57;;;8.70;;
11927;SDS011;6023;47.070;15.126;2023-06-26T06:52:12;9.55;;;8.60;;
11927;SDS011;6023;47.070;15.126;2023-06-26T06:54:53;8.82;;;8.10;;
11927;SDS011;6023;47.070;15.126;2023-06-26T06:57:21;10.00;;;9.00;;
11927;SDS011;6023;47.070;15.126;2023-06-26T06:59:50;9.38;;;8.48;;
11927;SDS011;6023;47.070;15.126;2023-06-26T07:02:20;9.57;;;8.57;;
11927;SDS011;6023;47.070;15.126;2023-06-26T07:04:49;9.10;;;8.30;;
11927;SDS011;6023;47.070;15.126;2023-06-26T07:07:18;10.52;;;9.20;;
11927;SDS011;6023;47.070;15.126;2023-06-26T07:09:47;9.48;;;8.65;;
11927;SDS011;6023;47.070;15.126;2023-06-26T07:12:15;9.32;;;8.48;;
11927;SDS011;6023;47.070;15.126;2023-06-26T07:14:44;9.93;;;9.02;;
11927;SDS011;6023;47.070;15.126;2023-06-26T07:17:12;10.52;;;9.63;;
11927;SDS011;6023;47.070;15.126;2023-06-26T07:19:42;9.55;;;8.65;;
11927;SDS011;6023;47.070;15.126;2023-06-26T07:22:11;9.75;;;8.85;;
11927;SDS011;6023;47.070;15.126;2023-06-26T07:24:39;9.95;;;9.05;;
11927;SDS011;6023;47.070;15.126;2023-06-26T07:27:08;9.27;;;8.40;;
11927;SDS011;6023;47.070;15.126;2023-06-26T07:29:37;9.20;;;8.30;;
11927;SDS011;6023;47.070;15.126;2023-06-26T07:32:05;9.55;;;8.65;;
11927;SDS011;6023;47.070;15.126;2023-06-26T07:34:34;9.68;;;8.75;;
11927;SDS011;6023;47.070;15.126;2023-06-26T07:37:04;9.70;;;8.80;;
11927;SDS011;6023;47.070;15.126;2023-06-26T07:39:33;9.20;;;8.40;;
11927;SDS011;6023;47.070;15.126;2023-06-26T07:42:02;9.85;;;8.88;;
11927;SDS011;6023;47.070;15.126;2023-06-26T07:44:31;11.07;;;9.98;;
11927;SDS011;6023;47.070;15.126;2023-06-26T07:46:59;11.30;;;10.20;;
11927;SDS011;6023;47.070;15.126;2023-06-26T07:49:28;9.18;;;8.25;;
11927;SDS011;6023;47.070;15.126;2023-06-26T07:51:56;8.85;;;8.02;;
11927;SDS011;6023;47.070;15.126;2023-06-26T07:54:26;8.80;;;8.00;;
11927;SDS011;6023;47.070;15.126;2023-06-26T07:56:57;8.70;;;7.93;;
11927;SDS011;6023;47.070;15.126;2023-06-26T07:59:27;8.75;;;7.95;;
11927;SDS011;6023;47.070;15.126;2023-06-26T08:01:57;9.57;;;8.63;;
11927;SDS011;6023;47.070;15.126;2023-06-26T08:04:26;8.75;;;7.95;;
11927;SDS011;6023;47.070;15.126;2023-06-26T08:06:56;9.27;;;8.40;;
11927;SDS011;6023;47.070;15.126;2023-06-26T08:09:27;8.95;;;8.15;;
11927;SDS011;6023;47.070;15.126;2023-06-26T08:11:56;9.48;;;8.48;;
11927;SDS011;6023;47.070;15.126;2023-06-26T08:14:25;8.82;;;8.02;;
11927;SDS011;6023;47.070;15.126;2023-06-26T08:16:54;8.48;;;7.68;;
11927;SDS011;6023;47.070;15.126;2023-06-26T08:19:23;8.57;;;7.70;;
11927;SDS011;6023;47.070;15.126;2023-06-26T08:21:51;8.70;;;7.90;;
11927;SDS011;6023;47.070;15.126;2023-06-26T08:24:20;8.48;;;7.78;;
11927;SDS011;6023;47.070;15.126;2023-06-26T08:26:50;8.65;;;7.88;;
11927;SDS011;6023;47.070;15.126;2023-06-26T08:29:18;8.88;;;8.07;;
11927;SDS011;6023;47.070;15.126;2023-06-26T08:31:47;8.30;;;7.50;;
11927;SDS011;6023;47.070;15.126;2023-06-26T08:34:16;9.88;;;8.90;;
11927;SDS011;6023;47.070;15.126;2023-06-26T08:36:44;9.85;;;8.95;;
11927;SDS011;6023;47.070;15.126;2023-06-26T08:39:13;9.07;;;8.18;;
11927;SDS011;6023;47.070;15.126;2023-06-26T08:41:41;9.80;;;8.18;;
11927;SDS011;6023;47.070;15.126;2023-06-26T08:44:11;8.73;;;7.65;;
11927;SDS011;6023;47.070;15.126;2023-06-26T08:46:40;8.18;;;7.43;;
11927;SDS011;6023;47.070;15.126;2023-06-26T08:49:11;8.32;;;7.63;;
11927;SDS011;6023;47.070;15.126;2023-06-26T08:51:42;9.05;;;8.15;;
11927;SDS011;6023;47.070;15.126;2023-06-26T08:54:16;8.48;;;7.78;;
11927;SDS011;6023;47.070;15.126;2023-06-26T08:56:46;8.93;;;8.13;;
11927;SDS011;6023;47.070;15.126;2023-06-26T08:59:17;9.07;;;8.23;;
11927;SDS011;6023;47.070;15.126;2023-06-26T09:01:46;8.68;;;7.85;;
11927;SDS011;6023;47.070;15.126;2023-06-26T09:04:15;9.15;;;8.35;;
11927;SDS011;6023;47.070;15.126;2023-06-26T09:06:43;8.30;;;7.60;;
11927;SDS011;6023;47.070;15.126;2023-06-26T09:09:12;8.63;;;7.82;;
11927;SDS011;6023;47.070;15.126;2023-06-26T09:11:41;9.00;;;8.20;;
11927;SDS011;6023;47.070;15.126;2023-06-26T09:14:10;8.93;;;8.13;;
11927;SDS011;6023;47.070;15.126;2023-06-26T09:16:41;8.02;;;7.32;;
11927;SDS011;6023;47.070;15.126;2023-06-26T09:19:10;8.20;;;7.50;;
11927;SDS011;6023;47.070;15.126;2023-06-26T09:21:39;8.80;;;7.95;;
11927;SDS011;6023;47.070;15.126;2023-06-26T09:24:09;8.32;;;7.53;;
11927;SDS011;6023;47.070;15.126;2023-06-26T09:26:38;8.77;;;7.97;;
11927;SDS011;6023;47.070;15.126;2023-06-26T09:29:07;8.63;;;7.93;;
11927;SDS011;6023;47.070;15.126;2023-06-26T09:31:37;9.20;;;8.30;;
11927;SDS011;6023;47.070;15.126;2023-06-26T09:34:10;9.80;;;8.90;;
11927;SDS011;6023;47.070;15.126;2023-06-26T09:36:38;8.60;;;7.85;;
11927;SDS011;6023;47.070;15.126;2023-06-26T09:39:09;9.18;;;8.20;;
11927;SDS011;6023;47.070;15.126;2023-06-26T09:41:40;8.48;;;7.68;;
11927;SDS011;6023;47.070;15.126;2023-06-26T09:44:10;8.60;;;7.80;;
11927;SDS011;6023;47.070;15.126;2023-06-26T09:46:41;8.40;;;7.60;;
11927;SDS011;6023;47.070;15.126;2023-06-26T09:49:13;8.50;;;7.70;;
11927;SDS011;6023;47.070;15.126;2023-06-26T09:51:42;8.23;;;7.43;;
11927;SDS011;6023;47.070;15.126;2023-06-26T09:54:11;9.73;;;8.82;;
11927;SDS011;6023;47.070;15.126;2023-06-26T09:56:42;10.95;;;10.05;;
11927;SDS011;6023;47.070;15.126;2023-06-26T09:59:11;9.55;;;8.63;;
11927;SDS011;6023;47.070;15.126;2023-06-26T10:01:41;8.93;;;8.13;;
11927;SDS011;6023;47.070;15.126;2023-06-26T10:04:15;8.73;;;7.68;;
11927;SDS011;6023;47.070;15.126;2023-06-26T10:06:45;11.20;;;10.20;;
11927;SDS011;6023;47.070;15.126;2023-06-26T10:09:16;12.82;;;11.63;;
11927;SDS011;6023;47.070;15.126;2023-06-26T10:11:47;9.90;;;9.00;;
11927;SDS011;6023;47.070;15.126;2023-06-26T10:14:19;8.20;;;7.40;;
11927;SDS011;6023;47.070;15.126;2023-06-26T10:16:49;8.65;;;7.85;;
11927;SDS011;6023;47.070;15.126;2023-06-26T10:19:19;8.80;;;7.90;;
11927;SDS011;6023;47.070;15.126;2023-06-26T10:21:52;8.63;;;7.82;;
11927;SDS011;6023;47.070;15.126;2023-06-26T10:24:22;8.43;;;7.63;;
11927;SDS011;6023;47.070;15.126;2023-06-26T10:26:52;11.30;;;10.20;;
11927;SDS011;6023;47.070;15.126;2023-06-26T10:29:23;8.60;;;7.80;;
11927;SDS011;6023;47.070;15.126;2023-06-26T10:31:52;10.32;;;9.32;;
11927;SDS011;6023;47.070;15.126;2023-06-26T10:34:25;8.10;;;7.38;;
11927;SDS011;6023;47.070;15.126;2023-06-26T10:37:00;8.77;;;7.95;;
11927;SDS011;6023;47.070;15.126;2023-06-26T10:39:34;9.25;;;8.45;;
11927;SDS011;6023;47.070;15.126;2023-06-26T10:42:16;10.32;;;9.32;;
11927;SDS011;6023;47.070;15.126;2023-06-26T10:44:46;10.25;;;9.25;;
11927;SDS011;6023;47.070;15.126;2023-06-26T10:47:30;11.57;;;10.57;;
11927;SDS011;6023;47.070;15.126;2023-06-26T10:50:20;10.77;;;8.88;;
11927;SDS011;6023;47.070;15.126;2023-06-26T10:53:07;8.32;;;7.45;;
11927;SDS011;6023;47.070;15.126;2023-06-26T10:55:37;8.30;;;7.50;;
11927;SDS011;6023;47.070;15.126;2023-06-26T11:01:14;8.15;;;7.35;;
11927;SDS011;6023;47.070;15.126;2023-06-26T11:03:48;8.02;;;7.32;;
11927;SDS011;6023;47.070;15.126;2023-06-26T11:06:31;7.32;;;6.63;;
11927;SDS011;6023;47.070;15.126;2023-06-26T11:09:05;7.25;;;6.47;;
11927;SDS011;6023;47.070;15.126;2023-06-26T11:14:29;8.27;;;7.47;;
11927;SDS011;6023;47.070;15.126;2023-06-26T11:16:58;7.70;;;7.00;;
11927;SDS011;6023;47.070;15.126;2023-06-26T11:19:29;7.57;;;6.88;;
11927;SDS011;6023;47.070;15.126;2023-06-26T11:22:01;12.07;;;11.07;;
11927;SDS011;6023;47.070;15.126;2023-06-26T11:24:31;7.72;;;7.03;;
11927;SDS011;6023;47.070;15.126;2023-06-26T11:27:00;7.43;;;6.50;;
11927;SDS011;6023;47.070;15.126;2023-06-26T11:29:31;7.68;;;6.85;;
11927;SDS011;6023;47.070;15.126;2023-06-26T11:32:03;8.05;;;7.25;;
11927;SDS011;6023;47.070;15.126;2023-06-26T11:34:34;7.32;;;6.72;;
11927;SDS011;6023;47.070;15.126;2023-06-26T11:37:05;7.28;;;6.65;;
11927;SDS011;6023;47.070;15.126;2023-06-26T11:39:35;7.95;;;7.25;;
11927;SDS011;6023;47.070;15.126;2023-06-26T11:42:05;7.72;;;6.55;;
11927;SDS011;6023;47.070;15.126;2023-06-26T11:44:39;7.30;;;6.60;;
11927;SDS011;6023;47.070;15.126;2023-06-26T11:47:11;7.05;;;6.35;;
11927;SDS011;6023;47.070;15.126;2023-06-26T11:49:42;7.95;;;7.25;;
11927;SDS011;6023;47.070;15.126;2023-06-26T11:52:12;7.78;;;7.00;;
11927;SDS011;6023;47.070;15.126;2023-06-26T11:54:41;9.43;;;7.15;;
11927;SDS011;6023;47.070;15.126;2023-06-26T11:57:13;7.78;;;7.00;;
11927;SDS011;6023;47.070;15.126;2023-06-26T11:59:42;7.35;;;6.65;;
11927;SDS011;6023;47.070;15.126;2023-06-26T12:02:13;7.20;;;6.60;;
11927;SDS011;6023;47.070;15.126;2023-06-26T12:04:42;7.80;;;7.10;;
11927;SDS011;6023;47.070;15.126;2023-06-26T12:07:13;6.70;;;6.10;;
11927;SDS011;6023;47.070;15.126;2023-06-26T12:09:42;6.93;;;6.30;;
11927;SDS011;6023;47.070;15.126;2023-06-26T12:12:13;7.55;;;6.65;;
11927;SDS011;6023;47.070;15.126;2023-06-26T12:14:43;6.88;;;6.20;;
11927;SDS011;6023;47.070;15.126;2023-06-26T12:17:12;6.65;;;6.05;;
11927;SDS011;6023;47.070;15.126;2023-06-26T12:19:43;7.30;;;6.60;;
11927;SDS011;6023;47.070;15.126;2023-06-26T12:22:13;6.78;;;6.18;;
11927;SDS011;6023;47.070;15.126;2023-06-26T12:24:42;6.68;;;6.07;;
11927;SDS011;6023;47.070;15.126;2023-06-26T12:27:12;6.75;;;6.15;;
11927;SDS011;6023;47.070;15.126;2023-06-26T12:29:50;7.00;;;6.40;;
11927;SDS011;6023;47.070;15.126;2023-06-26T12:32:21;6.95;;;6.35;;
11927;SDS011;6023;47.070;15.126;2023-06-26T12:34:51;6.63;;;6.03;;
11927;SDS011;6023;47.070;15.126;2023-06-26T12:37:22;6.22;;;5.63;;
11927;SDS011;6023;47.070;15.126;2023-06-26T12:39:51;6.97;;;6.28;;
11927;SDS011;6023;47.070;15.126;2023-06-26T12:42:21;6.63;;;6.03;;
11927;SDS011;6023;47.070;15.126;2023-06-26T12:44:50;6.38;;;5.78;;
11927;SDS011;6023;47.070;15.126;2023-06-26T12:47:23;6.32;;;5.72;;
11927;SDS011;6023;47.070;15.126;2023-06-26T12:49:54;6.35;;;5.75;;
11927;SDS011;6023;47.070;15.126;2023-06-26T12:52:25;6.50;;;5.90;;
11927;SDS011;6023;47.070;15.126;2023-06-26T12:54:54;6.78;;;6.10;;
11927;SDS011;6023;47.070;15.126;2023-06-26T12:57:24;7.20;;;6.57;;
11927;SDS011;6023;47.070;15.126;2023-06-26T12:59:53;5.97;;;5.47;;
11927;SDS011;6023;47.070;15.126;2023-06-26T13:02:21;6.78;;;6.18;;
11927;SDS011;6023;47.070;15.126;2023-06-26T13:04:50;6.28;;;5.72;;
11927;SDS011;6023;47.070;15.126;2023-06-26T13:07:19;6.65;;;6.05;;
11927;SDS011;6023;47.070;15.126;2023-06-26T13:09:49;6.38;;;5.78;;
11927;SDS011;6023;47.070;15.126;2023-06-26T13:12:18;6.22;;;5.63;;
11927;SDS011;6023;47.070;15.126;2023-06-26T13:14:47;7.45;;;6.75;;
11927;SDS011;6023;47.070;15.126;2023-06-26T13:17:15;6.80;;;6.20;;
11927;SDS011;6023;47.070;15.126;2023-06-26T13:19:45;7.70;;;7.00;;
11927;SDS011;6023;47.070;15.126;2023-06-26T13:22:13;6.78;;;6.18;;
11927;SDS011;6023;47.070;15.126;2023-06-26T13:24:42;6.60;;;6.00;;
11927;SDS011;6023;47.070;15.126;2023-06-26T13:27:12;7.30;;;6.60;;
11927;SDS011;6023;47.070;15.126;2023-06-26T13:29:41;7.28;;;6.57;;
11927;SDS011;6023;47.070;15.126;2023-06-26T13:32:10;7.03;;;6.43;;
11927;SDS011;6023;47.070;15.126;2023-06-26T13:34:38;6.63;;;6.03;;
11927;SDS011;6023;47.070;15.126;2023-06-26T13:37:08;6.90;;;6.25;;
11927;SDS011;6023;47.070;15.126;2023-06-26T13:39:36;6.88;;;6.28;;
11927;SDS011;6023;47.070;15.126;2023-06-26T13:42:05;10.70;;;9.80;;
11927;SDS011;6023;47.070;15.126;2023-06-26T13:44:36;9.27;;;8.43;;
11927;SDS011;6023;47.070;15.126;2023-06-26T13:47:21;7.05;;;6.35;;
11927;SDS011;6023;47.070;15.126;2023-06-26T13:49:50;6.80;;;6.20;;
11927;SDS011;6023;47.070;15.126;2023-06-26T13:52:19;6.47;;;5.90;;
11927;SDS011;6023;47.070;15.126;2023-06-26T13:54:47;7.15;;;6.53;;
11927;SDS011;6023;47.070;15.126;2023-06-26T13:57:16;7.75;;;6.95;;
11927;SDS011;6023;47.070;15.126;2023-06-26T13:59:47;8.02;;;6.95;;
11927;SDS011;6023;47.070;15.126;2023-06-26T14:02:16;7.40;;;6.70;;
11927;SDS011;6023;47.070;15.126;2023-06-26T14:04:44;7.18;;;6.53;;
11927;SDS011;6023;47.070;15.126;2023-06-26T14:07:13;7.07;;;6.47;;
11927;SDS011;6023;47.070;15.126;2023-06-26T14:09:42;7.68;;;6.90;;
11927;SDS011;6023;47.070;15.126;2023-06-26T14:12:11;7.68;;;6.97;;
11927;SDS011;6023;47.070;15.126;2023-06-26T14:14:39;7.50;;;6.57;;
11927;SDS011;6023;47.070;15.126;2023-06-26T14:17:09;7.32;;;6.72;;
11927;SDS011;6023;47.070;15.126;2023-06-26T14:19:43;8.10;;;7.30;;
11927;SDS011;6023;47.070;15.126;2023-06-26T14:22:13;7.80;;;7.05;;
11927;SDS011;6023;47.070;15.126;2023-06-26T14:24:42;7.45;;;6.50;;
11927;SDS011;6023;47.070;15.126;2023-06-26T14:27:10;7.28;;;6.57;;
11927;SDS011;6023;47.070;15.126;2023-06-26T14:29:39;7.07;;;6.38;;
11927;SDS011;6023;47.070;15.126;2023-06-26T14:32:08;8.20;;;7.40;;
11927;SDS011;6023;47.070;15.126;2023-06-26T14:34:39;7.40;;;6.80;;
11927;SDS011;6023;47.070;15.126;2023-06-26T14:37:08;7.28;;;6.68;;
11927;SDS011;6023;47.070;15.126;2023-06-26T14:39:36;7.40;;;6.65;;
11927;SDS011;6023;47.070;15.126;2023-06-26T14:42:06;6.93;;;6.32;;
11927;SDS011;6023;47.070;15.126;2023-06-26T14:44:36;7.50;;;6.80;;
11927;SDS011;6023;47.070;15.126;2023-06-26T14:47:05;7.50;;;6.80;;
11927;SDS011;6023;47.070;15.126;2023-06-26T14:49:35;7.28;;;6.57;;
11927;SDS011;6023;47.070;15.126;2023-06-26T14:52:04;7.38;;;6.65;;
11927;SDS011;6023;47.070;15.126;2023-06-26T14:54:33;6.50;;;5.90;;
11927;SDS011;6023;47.070;15.126;2023-06-26T14:57:03;7.97;;;7.20;;
11927;SDS011;6023;47.070;15.126;2023-06-26T14:59:32;7.72;;;6.75;;
11927;SDS011;6023;47.070;15.126;2023-06-26T15:02:00;7.57;;;6.78;;
11927;SDS011;6023;47.070;15.126;2023-06-26T15:04:29;7.85;;;7.13;;